sensor_id;sensor_type;location;lat;lon;timestamp;temperature;humidity
22850;DHT22;11591;44.792;10.358;2023-04-03T00:00:50;11.60;99.90
22850;DHT22;11591;44.792;10.358;2023-04-03T00:03:17;11.60;99.90
22850;DHT22;11591;44.792;10.358;2023-04-03T00:05:42;11.70;99.90
22850;DHT22;11591;44.792;10.358;2023-04-03T00:08:09;11.70;99.90
22850;DHT22;11591;44.792;10.358;2023-04-03T00:10:36;11.80;99.90
22850;DHT22;11591;44.792;10.358;2023-04-03T00:13:04;11.80;99.90
22850;DHT22;11591;44.792;10.358;2023-04-03T00:15:29;11.90;99.90
22850;DHT22;11591;44.792;10.358;2023-04-03T00:17:55;12.00;99.90
22850;DHT22;11591;44.792;10.358;2023-04-03T00:20:21;12.00;99.90
22850;DHT22;11591;44.792;10.358;2023-04-03T00:22:47;12.10;99.90
22850;DHT22;11591;44.792;10.358;2023-04-03T00:25:13;12.20;99.90
22850;DHT22;11591;44.792;10.358;2023-04-03T00:27:39;12.20;99.90
22850;DHT22;11591;44.792;10.358;2023-04-03T00:30:07;12.10;99.90
22850;DHT22;11591;44.792;10.358;2023-04-03T00:32:34;12.20;99.90
22850;DHT22;11591;44.792;10.358;2023-04-03T00:35:00;12.20;99.90
22850;DHT22;11591;44.792;10.358;2023-04-03T00:37:25;12.10;99.90
22850;DHT22;11591;44.792;10.358;2023-04-03T00:39:51;12.10;99.90
22850;DHT22;11591;44.792;10.358;2023-04-03T00:42:17;12.00;99.90
22850;DHT22;11591;44.792;10.358;2023-04-03T00:47:15;11.90;99.90
22850;DHT22;11591;44.792;10.358;2023-04-03T00:49:42;11.80;99.90
22850;DHT22;11591;44.792;10.358;2023-04-03T00:52:11;11.80;99.90
22850;DHT22;11591;44.792;10.358;2023-04-03T00:54:40;11.80;99.90
22850;DHT22;11591;44.792;10.358;2023-04-03T00:57:08;11.90;99.90
22850;DHT22;11591;44.792;10.358;2023-04-03T00:59:40;11.90;99.90
22850;DHT22;11591;44.792;10.358;2023-04-03T01:02:10;12.00;99.90
22850;DHT22;11591;44.792;10.358;2023-04-03T01:04:38;12.10;99.90
22850;DHT22;11591;44.792;10.358;2023-04-03T01:07:12;12.10;99.90
22850;DHT22;11591;44.792;10.358;2023-04-03T01:09:40;12.20;99.90
22850;DHT22;11591;44.792;10.358;2023-04-03T01:12:24;12.30;99.90
22850;DHT22;11591;44.792;10.358;2023-04-03T01:14:56;12.30;99.90
22850;DHT22;11591;44.792;10.358;2023-04-03T01:25:52;12.20;99.90
22850;DHT22;11591;44.792;10.358;2023-04-03T01:33:47;12.00;99.90
22850;DHT22;11591;44.792;10.358;2023-04-03T01:36:21;11.90;99.90
22850;DHT22;11591;44.792;10.358;2023-04-03T01:38:48;11.90;99.90
22850;DHT22;11591;44.792;10.358;2023-04-03T01:41:14;11.80;99.90
22850;DHT22;11591;44.792;10.358;2023-04-03T01:43:42;11.80;99.90
22850;DHT22;11591;44.792;10.358;2023-04-03T01:46:09;11.70;99.90
22850;DHT22;11591;44.792;10.358;2023-04-03T01:48:34;11.60;99.90
22850;DHT22;11591;44.792;10.358;2023-04-03T01:51:00;11.60;99.90
22850;DHT22;11591;44.792;10.358;2023-04-03T01:53:26;11.60;99.90
22850;DHT22;11591;44.792;10.358;2023-04-03T01:55:52;11.60;99.90
22850;DHT22;11591;44.792;10.358;2023-04-03T01:58:18;11.50;99.90
22850;DHT22;11591;44.792;10.358;2023-04-03T02:00:45;11.50;99.90
22850;DHT22;11591;44.792;10.358;2023-04-03T02:03:11;11.50;99.90
22850;DHT22;11591;44.792;10.358;2023-04-03T02:05:38;11.40;99.90
22850;DHT22;11591;44.792;10.358;2023-04-03T02:08:05;11.40;99.90
22850;DHT22;11591;44.792;10.358;2023-04-03T02:10:31;11.40;99.90
22850;DHT22;11591;44.792;10.358;2023-04-03T02:12:57;11.40;99.90
22850;DHT22;11591;44.792;10.358;2023-04-03T02:15:24;11.40;99.90
22850;DHT22;11591;44.792;10.358;2023-04-03T02:17:52;11.40;99.90
22850;DHT22;11591;44.792;10.358;2023-04-03T02:20:19;11.30;99.90
22850;DHT22;11591;44.792;10.358;2023-04-03T02:22:45;11.30;99.90
22850;DHT22;11591;44.792;10.358;2023-04-03T02:25:11;11.30;99.90
22850;DHT22;11591;44.792;10.358;2023-04-03T02:27:38;11.20;99.90
22850;DHT22;11591;44.792;10.358;2023-04-03T02:30:04;11.20;99.90
22850;DHT22;11591;44.792;10.358;2023-04-03T02:32:31;11.20;99.90
22850;DHT22;11591;44.792;10.358;2023-04-03T02:34:57;11.20;99.90
22850;DHT22;11591;44.792;10.358;2023-04-03T02:37:23;11.30;99.90
22850;DHT22;11591;44.792;10.358;2023-04-03T02:39:52;11.30;99.90
22850;DHT22;11591;44.792;10.358;2023-04-03T02:42:18;11.30;99.90
22850;DHT22;11591;44.792;10.358;2023-04-03T02:44:43;11.30;99.90
22850;DHT22;11591;44.792;10.358;2023-04-03T02:47:10;11.30;99.90
22850;DHT22;11591;44.792;10.358;2023-04-03T02:49:36;11.30;99.90
22850;DHT22;11591;44.792;10.358;2023-04-03T02:52:01;11.40;99.90
22850;DHT22;11591;44.792;10.358;2023-04-03T02:54:27;11.30;99.90
22850;DHT22;11591;44.792;10.358;2023-04-03T02:56:59;11.30;99.90
22850;DHT22;11591;44.792;10.358;2023-04-03T02:59:25;11.30;99.90
22850;DHT22;11591;44.792;10.358;2023-04-03T03:01:51;11.40;99.90
22850;DHT22;11591;44.792;10.358;2023-04-03T03:04:16;11.40;99.90
22850;DHT22;11591;44.792;10.358;2023-04-03T03:06:42;11.40;99.90
22850;DHT22;11591;44.792;10.358;2023-04-03T03:09:08;11.40;99.90
22850;DHT22;11591;44.792;10.358;2023-04-03T03:11:34;11.30;99.90
22850;DHT22;11591;44.792;10.358;2023-04-03T03:14:02;11.30;99.90
22850;DHT22;11591;44.792;10.358;2023-04-03T03:16:27;11.30;99.90
22850;DHT22;11591;44.792;10.358;2023-04-03T03:18:53;11.30;99.90
22850;DHT22;11591;44.792;10.358;2023-04-03T03:21:19;11.30;99.90
22850;DHT22;11591;44.792;10.358;2023-04-03T03:23:45;11.40;99.90
22850;DHT22;11591;44.792;10.358;2023-04-03T03:26:11;11.30;99.90
22850;DHT22;11591;44.792;10.358;2023-04-03T03:28:38;11.30;99.90
22850;DHT22;11591;44.792;10.358;2023-04-03T03:31:06;11.40;99.90
22850;DHT22;11591;44.792;10.358;2023-04-03T03:33:33;11.30;99.90
22850;DHT22;11591;44.792;10.358;2023-04-03T03:35:59;11.30;99.90
22850;DHT22;11591;44.792;10.358;2023-04-03T03:38:26;11.30;99.90
22850;DHT22;11591;44.792;10.358;2023-04-03T03:40:53;11.30;99.90
22850;DHT22;11591;44.792;10.358;2023-04-03T03:43:20;11.10;99.90
22850;DHT22;11591;44.792;10.358;2023-04-03T03:45:51;11.10;99.90
22850;DHT22;11591;44.792;10.358;2023-04-03T03:48:19;11.00;99.90
22850;DHT22;11591;44.792;10.358;2023-04-03T03:50:45;11.00;99.90
22850;DHT22;11591;44.792;10.358;2023-04-03T03:53:11;11.00;99.90
22850;DHT22;11591;44.792;10.358;2023-04-03T03:55:37;11.00;99.90
22850;DHT22;11591;44.792;10.358;2023-04-03T03:58:03;11.00;99.90
22850;DHT22;11591;44.792;10.358;2023-04-03T04:00:31;11.00;99.90
22850;DHT22;11591;44.792;10.358;2023-04-03T04:02:57;11.10;99.90
22850;DHT22;11591;44.792;10.358;2023-04-03T04:05:24;11.10;99.90
22850;DHT22;11591;44.792;10.358;2023-04-03T04:07:52;11.20;99.90
22850;DHT22;11591;44.792;10.358;2023-04-03T04:10:18;11.10;99.90
22850;DHT22;11591;44.792;10.358;2023-04-03T04:12:45;11.10;99.90
22850;DHT22;11591;44.792;10.358;2023-04-03T04:15:11;11.20;99.90
22850;DHT22;11591;44.792;10.358;2023-04-03T04:17:38;11.10;99.90
22850;DHT22;11591;44.792;10.358;2023-04-03T04:20:06;11.10;99.90
22850;DHT22;11591;44.792;10.358;2023-04-03T04:22:33;11.10;99.90
22850;DHT22;11591;44.792;10.358;2023-04-03T04:24:58;11.00;99.90
22850;DHT22;11591;44.792;10.358;2023-04-03T04:27:25;11.10;99.90
22850;DHT22;11591;44.792;10.358;2023-04-03T04:29:51;11.00;99.90
22850;DHT22;11591;44.792;10.358;2023-04-03T04:32:17;11.00;99.90
22850;DHT22;11591;44.792;10.358;2023-04-03T04:34:44;10.90;99.90
22850;DHT22;11591;44.792;10.358;2023-04-03T04:37:10;10.90;99.90
22850;DHT22;11591;44.792;10.358;2023-04-03T04:39:36;10.90;99.90
22850;DHT22;11591;44.792;10.358;2023-04-03T04:42:03;10.90;99.90
22850;DHT22;11591;44.792;10.358;2023-04-03T04:44:31;10.80;99.90
22850;DHT22;11591;44.792;10.358;2023-04-03T04:46:57;10.70;99.90
22850;DHT22;11591;44.792;10.358;2023-04-03T04:49:22;10.70;99.90
22850;DHT22;11591;44.792;10.358;2023-04-03T04:51:48;10.60;99.90
22850;DHT22;11591;44.792;10.358;2023-04-03T04:54:17;10.60;99.90
22850;DHT22;11591;44.792;10.358;2023-04-03T04:56:46;10.60;99.90
22850;DHT22;11591;44.792;10.358;2023-04-03T04:59:12;10.60;99.90
22850;DHT22;11591;44.792;10.358;2023-04-03T05:01:39;10.50;99.90
22850;DHT22;11591;44.792;10.358;2023-04-03T05:04:09;10.50;99.90
22850;DHT22;11591;44.792;10.358;2023-04-03T05:06:36;10.50;99.90
22850;DHT22;11591;44.792;10.358;2023-04-03T05:09:07;10.50;99.90
22850;DHT22;11591;44.792;10.358;2023-04-03T05:11:35;10.60;99.90
22850;DHT22;11591;44.792;10.358;2023-04-03T05:14:00;10.70;99.90
22850;DHT22;11591;44.792;10.358;2023-04-03T05:16:28;10.80;99.90
22850;DHT22;11591;44.792;10.358;2023-04-03T05:18:55;10.80;99.90
22850;DHT22;11591;44.792;10.358;2023-04-03T05:21:39;10.90;99.90
22850;DHT22;11591;44.792;10.358;2023-04-03T05:24:23;10.90;99.90
22850;DHT22;11591;44.792;10.358;2023-04-03T05:26:49;10.90;99.90
22850;DHT22;11591;44.792;10.358;2023-04-03T05:29:33;10.90;99.90
22850;DHT22;11591;44.792;10.358;2023-04-03T05:32:17;10.90;99.90
22850;DHT22;11591;44.792;10.358;2023-04-03T05:34:47;10.90;99.90
22850;DHT22;11591;44.792;10.358;2023-04-03T05:37:13;10.80;99.90
22850;DHT22;11591;44.792;10.358;2023-04-03T05:39:39;10.90;99.90
22850;DHT22;11591;44.792;10.358;2023-04-03T05:42:07;11.00;99.90
22850;DHT22;11591;44.792;10.358;2023-04-03T05:44:34;11.10;99.90
22850;DHT22;11591;44.792;10.358;2023-04-03T05:47:02;11.10;99.90
22850;DHT22;11591;44.792;10.358;2023-04-03T05:49:28;11.10;99.90
22850;DHT22;11591;44.792;10.358;2023-04-03T05:51:54;11.20;99.90
22850;DHT22;11591;44.792;10.358;2023-04-03T05:54:28;11.30;99.90
22850;DHT22;11591;44.792;10.358;2023-04-03T05:57:01;11.30;99.90
22850;DHT22;11591;44.792;10.358;2023-04-03T05:59:27;11.30;99.90
22850;DHT22;11591;44.792;10.358;2023-04-03T06:01:56;11.30;99.90
22850;DHT22;11591;44.792;10.358;2023-04-03T06:04:22;11.30;99.90
22850;DHT22;11591;44.792;10.358;2023-04-03T06:06:52;11.20;99.90
22850;DHT22;11591;44.792;10.358;2023-04-03T06:09:20;11.20;99.90
22850;DHT22;11591;44.792;10.358;2023-04-03T06:11:47;11.00;99.90
22850;DHT22;11591;44.792;10.358;2023-04-03T06:14:13;11.00;99.90
22850;DHT22;11591;44.792;10.358;2023-04-03T06:16:40;11.10;99.90
22850;DHT22;11591;44.792;10.358;2023-04-03T06:19:10;10.90;99.90
22850;DHT22;11591;44.792;10.358;2023-04-03T06:21:40;10.60;99.90
22850;DHT22;11591;44.792;10.358;2023-04-03T06:24:06;10.60;99.90
22850;DHT22;11591;44.792;10.358;2023-04-03T06:26:33;10.50;99.90
22850;DHT22;11591;44.792;10.358;2023-04-03T06:28:59;10.60;99.90
22850;DHT22;11591;44.792;10.358;2023-04-03T06:31:25;10.60;99.90
22850;DHT22;11591;44.792;10.358;2023-04-03T06:33:52;10.70;99.90
22850;DHT22;11591;44.792;10.358;2023-04-03T06:36:19;10.80;99.90
22850;DHT22;11591;44.792;10.358;2023-04-03T06:38:46;10.90;99.90
22850;DHT22;11591;44.792;10.358;2023-04-03T06:41:12;10.70;99.90
22850;DHT22;11591;44.792;10.358;2023-04-03T06:43:38;10.70;99.90
22850;DHT22;11591;44.792;10.358;2023-04-03T06:46:04;10.80;99.90
22850;DHT22;11591;44.792;10.358;2023-04-03T06:48:30;11.00;99.90
22850;DHT22;11591;44.792;10.358;2023-04-03T06:50:57;11.00;99.90
22850;DHT22;11591;44.792;10.358;2023-04-03T06:53:23;11.00;99.90
22850;DHT22;11591;44.792;10.358;2023-04-03T06:55:48;11.10;99.90
22850;DHT22;11591;44.792;10.358;2023-04-03T06:58:14;11.20;99.90
22850;DHT22;11591;44.792;10.358;2023-04-03T07:00:42;11.30;99.90
22850;DHT22;11591;44.792;10.358;2023-04-03T07:03:08;11.40;99.90
22850;DHT22;11591;44.792;10.358;2023-04-03T07:05:34;11.50;99.90
22850;DHT22;11591;44.792;10.358;2023-04-03T07:08:00;11.60;99.90
22850;DHT22;11591;44.792;10.358;2023-04-03T07:10:26;11.70;99.90
22850;DHT22;11591;44.792;10.358;2023-04-03T07:12:52;11.70;99.90
22850;DHT22;11591;44.792;10.358;2023-04-03T07:15:18;11.80;99.90
22850;DHT22;11591;44.792;10.358;2023-04-03T07:17:44;11.80;99.90
22850;DHT22;11591;44.792;10.358;2023-04-03T07:20:10;11.90;99.90
22850;DHT22;11591;44.792;10.358;2023-04-03T07:22:36;11.90;99.90
22850;DHT22;11591;44.792;10.358;2023-04-03T07:25:03;12.00;99.90
22850;DHT22;11591;44.792;10.358;2023-04-03T07:27:29;12.00;99.90
22850;DHT22;11591;44.792;10.358;2023-04-03T07:29:56;12.10;99.90
22850;DHT22;11591;44.792;10.358;2023-04-03T07:32:22;12.10;99.90
22850;DHT22;11591;44.792;10.358;2023-04-03T07:34:47;12.20;99.90
22850;DHT22;11591;44.792;10.358;2023-04-03T07:37:13;12.20;99.90
22850;DHT22;11591;44.792;10.358;2023-04-03T07:39:43;12.20;99.90
22850;DHT22;11591;44.792;10.358;2023-04-03T07:42:10;12.30;99.90
22850;DHT22;11591;44.792;10.358;2023-04-03T07:44:37;12.30;99.90
22850;DHT22;11591;44.792;10.358;2023-04-03T07:47:03;12.30;99.90
22850;DHT22;11591;44.792;10.358;2023-04-03T07:49:29;12.30;99.90
22850;DHT22;11591;44.792;10.358;2023-04-03T07:51:55;12.30;99.90
22850;DHT22;11591;44.792;10.358;2023-04-03T07:54:21;12.40;99.90
22850;DHT22;11591;44.792;10.358;2023-04-03T07:56:47;12.40;99.90
22850;DHT22;11591;44.792;10.358;2023-04-03T07:59:14;12.40;99.90
22850;DHT22;11591;44.792;10.358;2023-04-03T08:01:40;12.40;99.90
22850;DHT22;11591;44.792;10.358;2023-04-03T08:04:06;12.40;99.90
22850;DHT22;11591;44.792;10.358;2023-04-03T08:06:32;12.40;99.90
22850;DHT22;11591;44.792;10.358;2023-04-03T08:09:02;12.40;99.90
22850;DHT22;11591;44.792;10.358;2023-04-03T08:11:29;12.50;99.90
22850;DHT22;11591;44.792;10.358;2023-04-03T08:13:56;12.50;99.90
22850;DHT22;11591;44.792;10.358;2023-04-03T08:16:23;12.50;99.90
22850;DHT22;11591;44.792;10.358;2023-04-03T08:18:52;12.60;99.90
22850;DHT22;11591;44.792;10.358;2023-04-03T08:21:18;12.60;99.90
22850;DHT22;11591;44.792;10.358;2023-04-03T08:23:44;12.70;99.90
22850;DHT22;11591;44.792;10.358;2023-04-03T08:26:16;12.70;99.90
22850;DHT22;11591;44.792;10.358;2023-04-03T08:28:42;12.80;99.90
22850;DHT22;11591;44.792;10.358;2023-04-03T08:31:11;12.90;99.90
22850;DHT22;11591;44.792;10.358;2023-04-03T08:33:37;12.90;99.90
22850;DHT22;11591;44.792;10.358;2023-04-03T08:36:05;12.90;99.90
22850;DHT22;11591;44.792;10.358;2023-04-03T08:38:32;13.00;99.90
22850;DHT22;11591;44.792;10.358;2023-04-03T08:41:30;13.00;99.90
22850;DHT22;11591;44.792;10.358;2023-04-03T08:44:25;12.90;99.90
22850;DHT22;11591;44.792;10.358;2023-04-03T08:49:33;13.00;99.90
22850;DHT22;11591;44.792;10.358;2023-04-03T08:52:05;13.10;99.90
22850;DHT22;11591;44.792;10.358;2023-04-03T08:54:40;13.10;99.90
22850;DHT22;11591;44.792;10.358;2023-04-03T08:57:09;13.20;99.90
22850;DHT22;11591;44.792;10.358;2023-04-03T08:59:37;13.20;99.90
22850;DHT22;11591;44.792;10.358;2023-04-03T09:02:28;13.20;99.90
22850;DHT22;11591;44.792;10.358;2023-04-03T09:04:54;13.30;99.90
22850;DHT22;11591;44.792;10.358;2023-04-03T09:07:30;13.30;99.90
22850;DHT22;11591;44.792;10.358;2023-04-03T09:10:00;13.40;99.90
22850;DHT22;11591;44.792;10.358;2023-04-03T09:12:37;13.40;99.90
22850;DHT22;11591;44.792;10.358;2023-04-03T09:15:24;13.40;99.90
22850;DHT22;11591;44.792;10.358;2023-04-03T09:18:13;13.50;99.90
22850;DHT22;11591;44.792;10.358;2023-04-03T09:20:58;13.60;99.90
22850;DHT22;11591;44.792;10.358;2023-04-03T09:26:33;13.70;99.90
22850;DHT22;11591;44.792;10.358;2023-04-03T09:29:05;13.70;99.90
22850;DHT22;11591;44.792;10.358;2023-04-03T09:31:39;13.80;99.90
22850;DHT22;11591;44.792;10.358;2023-04-03T09:34:28;13.80;99.90
22850;DHT22;11591;44.792;10.358;2023-04-03T09:36:57;13.90;99.90
22850;DHT22;11591;44.792;10.358;2023-04-03T09:39:27;14.00;99.90
22850;DHT22;11591;44.792;10.358;2023-04-03T09:44:40;14.20;99.90
22850;DHT22;11591;44.792;10.358;2023-04-03T09:47:27;14.30;99.90
22850;DHT22;11591;44.792;10.358;2023-04-03T09:50:20;14.30;99.90
22850;DHT22;11591;44.792;10.358;2023-04-03T09:52:48;14.40;99.90
22850;DHT22;11591;44.792;10.358;2023-04-03T09:55:16;14.50;99.90
22850;DHT22;11591;44.792;10.358;2023-04-03T09:57:44;14.60;99.90
22850;DHT22;11591;44.792;10.358;2023-04-03T10:00:35;14.70;99.90
22850;DHT22;11591;44.792;10.358;2023-04-03T10:03:01;14.70;99.90
22850;DHT22;11591;44.792;10.358;2023-04-03T10:05:41;14.80;99.90
22850;DHT22;11591;44.792;10.358;2023-04-03T10:10:36;15.00;99.90
22850;DHT22;11591;44.792;10.358;2023-04-03T10:13:07;15.10;99.90
22850;DHT22;11591;44.792;10.358;2023-04-03T10:16:01;15.10;99.90
22850;DHT22;11591;44.792;10.358;2023-04-03T10:23:57;15.20;99.90
22850;DHT22;11591;44.792;10.358;2023-04-03T10:26:45;15.30;99.90
22850;DHT22;11591;44.792;10.358;2023-04-03T10:34:46;15.40;99.90
22850;DHT22;11591;44.792;10.358;2023-04-03T10:37:24;15.40;99.90
22850;DHT22;11591;44.792;10.358;2023-04-03T10:51:22;15.60;99.90
22850;DHT22;11591;44.792;10.358;2023-04-03T10:54:24;15.60;99.90
22850;DHT22;11591;44.792;10.358;2023-04-03T10:59:44;15.60;99.90
22850;DHT22;11591;44.792;10.358;2023-04-03T11:02:32;15.60;99.90
22850;DHT22;11591;44.792;10.358;2023-04-03T11:05:08;15.60;99.90
22850;DHT22;11591;44.792;10.358;2023-04-03T11:07:49;15.60;99.90
22850;DHT22;11591;44.792;10.358;2023-04-03T11:10:23;15.50;99.90
22850;DHT22;11591;44.792;10.358;2023-04-03T11:15:39;15.60;99.90
22850;DHT22;11591;44.792;10.358;2023-04-03T11:18:11;15.60;99.90
22850;DHT22;11591;44.792;10.358;2023-04-03T11:20:42;15.60;99.90
22850;DHT22;11591;44.792;10.358;2023-04-03T11:23:32;15.60;99.90
22850;DHT22;11591;44.792;10.358;2023-04-03T11:26:11;15.60;99.90
22850;DHT22;11591;44.792;10.358;2023-04-03T11:28:37;15.60;99.90
22850;DHT22;11591;44.792;10.358;2023-04-03T11:31:25;15.60;99.90
22850;DHT22;11591;44.792;10.358;2023-04-03T11:36:58;15.70;99.90
22850;DHT22;11591;44.792;10.358;2023-04-03T11:39:31;15.80;99.90
22850;DHT22;11591;44.792;10.358;2023-04-03T11:42:24;15.90;99.90
22850;DHT22;11591;44.792;10.358;2023-04-03T11:47:57;15.80;99.90
22850;DHT22;11591;44.792;10.358;2023-04-03T12:14:03;15.90;99.90
22850;DHT22;11591;44.792;10.358;2023-04-03T12:16:33;15.90;99.90
22850;DHT22;11591;44.792;10.358;2023-04-03T12:19:30;16.00;99.90
22850;DHT22;11591;44.792;10.358;2023-04-03T12:24:26;16.10;99.90
22850;DHT22;11591;44.792;10.358;2023-04-03T12:30:05;16.10;99.90
22850;DHT22;11591;44.792;10.358;2023-04-03T12:32:49;16.10;99.90
22850;DHT22;11591;44.792;10.358;2023-04-03T12:41:23;16.20;99.90
22850;DHT22;11591;44.792;10.358;2023-04-03T12:44:09;16.30;99.90
22850;DHT22;11591;44.792;10.358;2023-04-03T12:46:43;16.30;99.90
22850;DHT22;11591;44.792;10.358;2023-04-03T12:51:54;16.50;99.90
22850;DHT22;11591;44.792;10.358;2023-04-03T12:54:36;16.50;99.90
22850;DHT22;11591;44.792;10.358;2023-04-03T12:57:18;16.60;99.90
22850;DHT22;11591;44.792;10.358;2023-04-03T12:59:44;16.60;99.90
22850;DHT22;11591;44.792;10.358;2023-04-03T13:02:31;16.70;99.40
22850;DHT22;11591;44.792;10.358;2023-04-03T13:05:06;16.70;99.40
22850;DHT22;11591;44.792;10.358;2023-04-03T13:07:35;16.90;99.40
22850;DHT22;11591;44.792;10.358;2023-04-03T13:12:33;17.70;99.00
22850;DHT22;11591;44.792;10.358;2023-04-03T13:15:14;18.20;98.50
22850;DHT22;11591;44.792;10.358;2023-04-03T13:17:42;18.70;99.30
22850;DHT22;11591;44.792;10.358;2023-04-03T13:25:24;18.90;99.20
22850;DHT22;11591;44.792;10.358;2023-04-03T13:27:51;19.30;98.70
22850;DHT22;11591;44.792;10.358;2023-04-03T13:32:51;20.50;97.20
22850;DHT22;11591;44.792;10.358;2023-04-03T13:38:06;21.20;97.50
22850;DHT22;11591;44.792;10.358;2023-04-03T13:40:32;21.30;97.80
22850;DHT22;11591;44.792;10.358;2023-04-03T13:43:04;21.10;97.70
22850;DHT22;11591;44.792;10.358;2023-04-03T13:45:33;20.40;98.00
22850;DHT22;11591;44.792;10.358;2023-04-03T13:48:19;19.90;98.00
22850;DHT22;11591;44.792;10.358;2023-04-03T13:50:57;19.60;98.50
22850;DHT22;11591;44.792;10.358;2023-04-03T13:53:25;19.30;98.40
22850;DHT22;11591;44.792;10.358;2023-04-03T13:58:30;19.00;98.30
22850;DHT22;11591;44.792;10.358;2023-04-03T14:01:11;18.90;98.30
22850;DHT22;11591;44.792;10.358;2023-04-03T14:03:40;18.90;98.30
22850;DHT22;11591;44.792;10.358;2023-04-03T14:06:08;19.00;97.80
22850;DHT22;11591;44.792;10.358;2023-04-03T14:08:35;18.80;97.60
22850;DHT22;11591;44.792;10.358;2023-04-03T14:11:02;18.60;97.90
22850;DHT22;11591;44.792;10.358;2023-04-03T14:13:30;18.40;98.20
22850;DHT22;11591;44.792;10.358;2023-04-03T14:15:56;18.40;98.40
22850;DHT22;11591;44.792;10.358;2023-04-03T14:18:22;18.40;98.70
22850;DHT22;11591;44.792;10.358;2023-04-03T14:20:49;18.60;98.60
22850;DHT22;11591;44.792;10.358;2023-04-03T14:23:15;18.60;98.50
22850;DHT22;11591;44.792;10.358;2023-04-03T14:25:42;18.50;98.10
22850;DHT22;11591;44.792;10.358;2023-04-03T14:28:17;18.30;98.40
22850;DHT22;11591;44.792;10.358;2023-04-03T14:30:44;18.10;98.90
22850;DHT22;11591;44.792;10.358;2023-04-03T14:33:15;18.00;99.00
22850;DHT22;11591;44.792;10.358;2023-04-03T14:35:41;18.20;98.50
22850;DHT22;11591;44.792;10.358;2023-04-03T14:38:33;18.40;97.60
22850;DHT22;11591;44.792;10.358;2023-04-03T14:40:59;18.40;97.90
22850;DHT22;11591;44.792;10.358;2023-04-03T14:43:25;18.30;97.80
22850;DHT22;11591;44.792;10.358;2023-04-03T14:45:52;18.30;98.10
22850;DHT22;11591;44.792;10.358;2023-04-03T14:48:22;18.60;98.20
22850;DHT22;11591;44.792;10.358;2023-04-03T14:50:49;19.00;97.90
22850;DHT22;11591;44.792;10.358;2023-04-03T14:53:15;19.40;97.10
22850;DHT22;11591;44.792;10.358;2023-04-03T14:55:46;19.50;96.40
22850;DHT22;11591;44.792;10.358;2023-04-03T14:58:17;19.20;96.10
22850;DHT22;11591;44.792;10.358;2023-04-03T15:00:43;18.90;95.30
22850;DHT22;11591;44.792;10.358;2023-04-03T15:03:18;18.50;95.50
22850;DHT22;11591;44.792;10.358;2023-04-03T15:05:46;18.50;95.10
22850;DHT22;11591;44.792;10.358;2023-04-03T15:08:23;18.50;95.20
22850;DHT22;11591;44.792;10.358;2023-04-03T15:10:51;18.70;94.00
22850;DHT22;11591;44.792;10.358;2023-04-03T15:13:21;18.90;93.70
22850;DHT22;11591;44.792;10.358;2023-04-03T15:15:47;19.20;93.10
22850;DHT22;11591;44.792;10.358;2023-04-03T15:18:27;19.40;92.20
22850;DHT22;11591;44.792;10.358;2023-04-03T15:20:54;19.50;91.00
22850;DHT22;11591;44.792;10.358;2023-04-03T15:23:21;19.60;90.80
22850;DHT22;11591;44.792;10.358;2023-04-03T15:25:52;19.80;90.70
22850;DHT22;11591;44.792;10.358;2023-04-03T15:28:40;20.00;90.70
22850;DHT22;11591;44.792;10.358;2023-04-03T15:31:06;20.20;89.60
22850;DHT22;11591;44.792;10.358;2023-04-03T15:33:34;20.30;87.90
22850;DHT22;11591;44.792;10.358;2023-04-03T15:36:01;20.40;87.50
22850;DHT22;11591;44.792;10.358;2023-04-03T15:38:27;20.50;86.30
22850;DHT22;11591;44.792;10.358;2023-04-03T15:40:54;20.60;86.00
22850;DHT22;11591;44.792;10.358;2023-04-03T15:43:20;20.70;85.10
22850;DHT22;11591;44.792;10.358;2023-04-03T15:45:46;20.60;84.50
22850;DHT22;11591;44.792;10.358;2023-04-03T15:48:12;20.50;84.30
22850;DHT22;11591;44.792;10.358;2023-04-03T15:50:38;20.50;83.60
22850;DHT22;11591;44.792;10.358;2023-04-03T15:53:05;20.40;84.70
22850;DHT22;11591;44.792;10.358;2023-04-03T15:55:34;20.40;84.60
22850;DHT22;11591;44.792;10.358;2023-04-03T15:58:00;20.30;84.70
22850;DHT22;11591;44.792;10.358;2023-04-03T16:00:27;20.30;84.60
22850;DHT22;11591;44.792;10.358;2023-04-03T16:02:56;20.20;84.50
22850;DHT22;11591;44.792;10.358;2023-04-03T16:05:24;20.10;84.20
22850;DHT22;11591;44.792;10.358;2023-04-03T16:07:51;20.10;84.40
22850;DHT22;11591;44.792;10.358;2023-04-03T16:10:18;20.10;84.60
22850;DHT22;11591;44.792;10.358;2023-04-03T16:12:44;20.10;83.90
22850;DHT22;11591;44.792;10.358;2023-04-03T16:15:11;20.00;83.90
22850;DHT22;11591;44.792;10.358;2023-04-03T16:17:37;19.90;84.40
22850;DHT22;11591;44.792;10.358;2023-04-03T16:20:04;19.80;84.80
22850;DHT22;11591;44.792;10.358;2023-04-03T16:22:32;19.80;85.20
22850;DHT22;11591;44.792;10.358;2023-04-03T16:24:58;19.60;85.00
22850;DHT22;11591;44.792;10.358;2023-04-03T16:27:24;19.60;85.30
22850;DHT22;11591;44.792;10.358;2023-04-03T16:29:55;19.50;84.70
22850;DHT22;11591;44.792;10.358;2023-04-03T16:32:22;19.40;84.60
22850;DHT22;11591;44.792;10.358;2023-04-03T16:34:49;19.30;85.10
22850;DHT22;11591;44.792;10.358;2023-04-03T16:37:16;19.30;85.70
22850;DHT22;11591;44.792;10.358;2023-04-03T16:39:42;19.10;85.30
22850;DHT22;11591;44.792;10.358;2023-04-03T16:42:08;19.10;85.50
22850;DHT22;11591;44.792;10.358;2023-04-03T16:44:35;19.00;86.30
22850;DHT22;11591;44.792;10.358;2023-04-03T16:47:01;18.90;86.90
22850;DHT22;11591;44.792;10.358;2023-04-03T16:49:27;18.90;87.40
22850;DHT22;11591;44.792;10.358;2023-04-03T16:51:58;18.70;87.80
22850;DHT22;11591;44.792;10.358;2023-04-03T16:54:24;18.70;87.60
22850;DHT22;11591;44.792;10.358;2023-04-03T16:56:50;18.60;87.90
22850;DHT22;11591;44.792;10.358;2023-04-03T16:59:16;18.40;86.10
22850;DHT22;11591;44.792;10.358;2023-04-03T17:01:42;18.30;86.20
22850;DHT22;11591;44.792;10.358;2023-04-03T17:04:07;18.20;86.60
22850;DHT22;11591;44.792;10.358;2023-04-03T17:06:33;18.10;86.30
22850;DHT22;11591;44.792;10.358;2023-04-03T17:08:59;18.00;86.00
22850;DHT22;11591;44.792;10.358;2023-04-03T17:11:26;17.80;85.90
22850;DHT22;11591;44.792;10.358;2023-04-03T17:13:53;17.70;86.40
22850;DHT22;11591;44.792;10.358;2023-04-03T17:16:19;17.70;87.00
22850;DHT22;11591;44.792;10.358;2023-04-03T17:18:45;17.60;86.80
22850;DHT22;11591;44.792;10.358;2023-04-03T17:21:13;17.50;87.00
22850;DHT22;11591;44.792;10.358;2023-04-03T17:23:41;17.40;87.60